Linville, North Carolina
Current Conditions -  °F | °C
As of 2:35 PM on Saturday 25 Oct 2014 (Local Time) from KTNB Reporting Station
Clear Clear  
Wind Chill: 62°   Ceiling: Unl
Heat Index: 62°   Visibility: 10mi
Dew Point: 32°   Wind: 17mph
Humidity: 33%   Direction: 290°WNW
Pressure: 30.04"   Gusts: 24mph
Location:  36.07°N, 81.87°W
Report Text: KTNB 251835Z AUTO 29015G21KT 10SM CLR 17/00 A3004 RMK AO2 T01660000
Loading
Personal Weather Stations






























Interactive Weather Map
Tropical Storm Tracking
New forecast layout! Learn more

10-Day Weather Forecast

Advertisements
Track Severe Weather on mobile